Sedgwick Reserve, California Weather observations

Data are for 10 minute period ending at time listed.
 Day   Time   Solar   Ave.   Ave.  Ave.  Vector  Max.   Baro.   Total    
  of    of     Rad.   Air    Rel.  Wind   Wind   Wind  Press.  Precip.   
Year   Day            Temp.  Hum.  Speed  Dir.   Gust                    
2015   (PST)  Kw/m2    F      %     mph   deg.    mph    mb.     in.     
-------------------------------------------------------------------------
  29   23:30   0.00   46.2    85    0.4   274     1.5   974.1    0.00 
  29   23:40   0.00   46.0    80    0.2   294     1.2   974.1    0.00 
  29   23:50   0.00   46.0    79    0.0    70     1.0   974.1    0.00 
  30    0:00   0.00   45.8    79    0.2   276     1.4   974.1    0.00 
  30    0:10   0.00   45.6    83    0.8   231     1.9   974.1    0.00 
  30    0:20   0.00   45.6    78    0.0     0     0.0   974.1    0.00 
  30    0:30   0.00   45.7    78    0.8   345     2.6   974.0    0.00 
  30    0:40   0.00   45.8    75    0.6   334     2.8   973.9    0.00 
  30    0:50   0.00   46.0    75    0.8   253     2.0   973.8    0.00 
  30    1:00   0.00   45.7    77    0.5    22     1.6   973.7    0.00 
  30    1:10   0.00   45.5    78    0.5   325     2.3   973.5    0.00 
  30    1:20   0.00   46.0    76    1.2   271     2.9   973.5    0.00 
  30    1:30   0.00   46.4    72    0.4     4     2.0   973.5    0.00 
  30    1:40   0.00   46.1    71    1.8   351     3.5   973.5    0.00 
  30    1:50   0.00   46.2    72    0.5   220     1.8   973.5    0.00 
  30    2:00   0.00   46.5    70    0.1   342     1.2   973.4    0.00 
  30    2:10   0.00   46.6    70    0.1   326     1.1   973.3    0.00 
  30    2:20   0.00   46.3    70    1.3   253     2.7   973.3    0.00 
  30    2:30   0.00   46.3    68    0.2   308     1.5   973.1    0.00 
  30    2:40   0.00   45.7    70    0.2   157     1.5   973.1    0.00 
  30    2:50   0.00   45.6    70    0.5    32     1.8   973.0    0.00 
  30    3:00   0.00   45.2    71    0.5   258     1.5   972.9    0.00 
  30    3:10   0.00   45.7    69    0.5    15     2.3   972.8    0.00 
  30    3:20   0.00   45.5    70    0.0    46     0.7   972.8    0.00 
  30    3:30   0.00   45.8    69    1.4   312     3.2   972.8    0.00 
  30    3:40   0.00   46.7    66    0.8    67     1.8   972.7    0.00 
  30    3:50   0.00   46.3    68    0.9   347     3.2   972.7    0.00 
  30    4:00   0.00   46.2    68    1.2   312     3.3   972.5    0.00 
  30    4:10   0.00   46.2    68    0.2   221     1.3   972.5    0.00 
  30    4:20   0.00   45.7    70    0.1   115     0.9   972.4    0.00 
  30    4:30   0.00   45.9    69    0.1   104     1.2   972.4    0.00 
  30    4:40   0.00   45.5    71    0.6   252     1.9   972.4    0.00 
  30    4:50   0.00   45.3    71    0.3    20     2.2   972.4    0.00 
  30    5:00   0.00   45.2    72    2.7     9     3.9   972.4    0.00 
  30    5:10   0.00   45.2    72    0.9   265     2.9   972.5    0.00 
  30    5:20   0.00   44.7    74    1.1   342     2.6   972.5    0.00 
  30    5:30   0.00   45.1    73    1.1   275     2.6   972.5    0.00 
  30    5:40   0.00   45.6    72    1.0     7     2.3   972.5    0.00 
  30    5:50   0.00   45.4    73    0.6     1     2.8   972.5    0.00 
  30    6:00   0.00   45.9    72    1.4   356     3.9   972.5    0.00 
  30    6:10   0.00   46.0    72    1.2   263     2.0   972.4    0.00 
  30    6:20   0.00   46.0    72    0.2   271     1.6   972.4    0.00 
  30    6:30   0.00   46.0    73    1.6   239     2.5   972.4    0.00 
  30    6:40   0.00   46.5    71    0.9   258     1.8   972.4    0.00 
  30    6:50   0.00   46.2    72    0.1     1     1.1   972.3    0.00 
  30    7:00   0.00   45.9    74    0.3   216     1.8   972.3    0.00 
  30    7:10   0.00   45.5    76    1.3   280     2.9   972.4    0.00 
  30    7:20   0.01   44.8    77    0.2    46     1.8   972.4    0.00 
  30    7:30   0.02   45.4    76    0.5   285     1.2   972.3    0.00 
  30    7:40   0.04   45.3    76    0.8    27     2.8   972.3    0.00 
  30    7:50   0.05   46.6    75    1.5     3     2.7   972.3    0.00 
  30    8:00   0.07   46.9    75    0.5   253     1.3   972.4    0.00 
  30    8:10   0.07   47.5    75    1.3   359     2.3   972.4    0.00 
  30    8:20   0.08   48.3    74    0.0   354     1.1   972.4    0.00 
  30    8:30   0.08   49.2    75    1.0   347     2.0   972.4    0.00 
  30    8:40   0.11   50.8    72    1.5   336     2.4   972.4    0.00 
  30    8:50   0.12   52.0    71    0.8   320     1.5   972.4    0.00 
  30    9:00   0.12   53.2    73    0.4   312     1.5   972.3    0.00 
  30    9:10   0.12   53.7    75    0.8    33     1.6   972.3    0.00 
  30    9:20   0.14   54.3    71    0.0     0     0.0   972.1    0.00 
  30    9:30   0.18   55.1    69    0.0     0     0.0   972.0    0.00 
  30    9:40   0.20   55.6    70    1.2   121     2.6   971.9    0.00 
  30    9:50   0.20   55.1    71    1.9   133     3.5   971.9    0.00 
  30   10:00   0.23   55.2    70    2.5   130     3.9   971.9    0.00 
  30   10:10   0.34   56.5    68    2.5   130     3.8   971.9    0.00 
  30   10:20   0.36   57.3    66    2.9   119     4.3   971.8    0.00 
  30   10:30   0.36   58.4    69    2.5   134     4.0   971.7    0.00 
  30   10:40   0.31   58.7    67    2.4   105     4.0   971.7    0.00 
  30   10:50   0.26   58.8    68    2.0   125     3.4   971.7    0.00 
  30   11:00   0.26   58.8    67    2.2   148     3.7   971.6    0.00 
  30   11:10   0.29   59.3    68    2.6   113     4.2   971.5    0.00 
  30   11:20   0.30   59.6    68    1.9   146     4.0   971.3    0.00 
  30   11:30   0.31   60.7    64    1.2   179     2.7   971.1    0.00 
  30   11:40   0.37   61.7    64    2.2   155     4.3   971.0    0.00 
  30   11:50   0.42   61.8    63    2.5   122     4.7   970.9    0.00 
  30   12:00   0.33   62.8    62    1.9   142     4.2   970.7    0.00 
  30   12:10   0.49   63.1    60    2.1   212     4.7   970.6    0.00 
  30   12:20   0.46   63.8    61    2.4   152     5.9   970.5    0.00 
  30   12:30   0.55   64.1    61    2.9   151     6.4   970.4    0.00 
  30   12:40   0.50   64.7    58    3.6   168     6.5   970.2    0.00 
  30   12:50   0.51   65.6    56    3.0   168     6.6   970.0    0.00 
  30   13:00   0.56   65.7    52    4.8   204     8.6   969.7    0.00 
  30   13:10   0.59   66.0    49    5.1   235     7.6   969.5    0.00 
  30   13:20   0.58   65.9    50    5.4   213     9.1   969.4    0.00 
  30   13:30   0.65   66.8    49    5.0   219     8.3   969.3    0.00 
  30   13:40   0.63   66.5    50    7.8   239    12.1   969.1    0.00 
  30   13:50   0.67   66.6    52    6.4   230     9.6   968.9    0.00 
  30   14:00   0.48   66.9    50    7.1   239    11.9   968.9    0.00 
  30   14:10   0.49   67.0    52    7.4   253    11.5   968.8    0.00 
  30   14:20   0.50   66.3    55   10.1   251    15.1   968.8    0.00 
  30   14:30   0.48   66.1    57    7.3   254    13.2   968.8    0.00 
  30   14:40   0.45   66.7    57    7.1   264    11.6   968.7    0.00 
  30   14:50   0.42   66.7    54    9.0   285    14.8   968.8    0.00 
  30   15:00   0.39   66.1    55    8.2   277    15.8   968.8    0.00 
  30   15:10   0.37   65.9    57    7.9   268    14.7   968.8    0.00 
  30   15:20   0.35   65.7    58    8.4   287    13.0   968.7    0.00 
  30   15:30   0.32   65.4    59    8.2   277    13.6   968.7    0.00 
  30   15:40   0.29   64.8    60    9.7   271    16.1   968.6    0.00 
  30   15:50   0.27   64.3    62    9.6   264    16.1   968.6    0.00 
  30   16:00   0.24   64.0    63   10.2   264    19.2   968.6    0.00 
  30   16:10   0.21   63.0    66   11.3   276    18.3   968.6    0.00 
  30   16:20   0.18   62.8    67    8.0   275    17.6   968.6    0.00 
  30   16:30   0.15   62.3    67    9.2   286    16.5   968.6    0.00 
  30   16:40   0.12   61.9    68    5.6   286    12.1   968.6    0.00 
  30   16:50   0.09   60.7    69    8.3   286    17.5   968.7    0.00 
  30   17:00   0.06   59.8    69    8.8   284    14.9   968.7    0.00 
  30   17:10   0.03   59.0    72    7.3   282    12.1   968.7    0.00 
  30   17:20   0.01   58.0    76    5.6   267    10.4   968.7    0.00 
  30   17:30   0.00   56.9    81    7.5   272    13.6   968.7    0.00 
  30   17:40   0.00   55.9    84    5.7   292    11.0   968.6    0.00 
  30   17:50   0.00   55.3    86    3.2   304     9.6   968.7    0.00 
  30   18:00   0.00   55.0    88    3.7   264     7.7   968.9    0.00 
  30   18:10   0.00   54.8    89    4.9   288     8.9   969.0    0.00 
  30   18:20   0.00   54.3    90    3.7   272     8.8   969.1    0.00 
  30   18:30   0.00   54.1    91    2.0   271     3.8   969.1    0.00 
  30   18:40   0.00   53.9    91    2.8   305     5.3   969.2    0.00 
  30   18:50   0.00   53.3    91    2.2   230     3.4   969.2    0.00 
  30   19:00   0.00   52.7    92    2.1   237     2.9   969.4    0.00 
  30   19:10   0.00   52.3    92    1.0   266     1.8   969.6    0.00 
  30   19:20   0.00   51.8    93    0.2   309     1.3   969.7    0.00 
  30   19:30   0.00   50.8    94    2.0     5     3.7   969.7    0.00 
  30   19:40   0.00   51.9    94    0.8   353     2.6   969.8    0.00 
  30   19:50   0.00   52.2    94    0.6   271     1.2   969.9    0.00 
  30   20:00   0.00   51.8    92    1.9    28     2.7   970.0    0.00 
  30   20:10   0.00   51.9    93    1.8    17     2.6   970.0    0.00 
  30   20:20   0.00   52.6    93    1.7   325     2.4   970.0    0.00 
  30   20:30   0.00   53.0    93    1.3   243     2.4   970.1    0.00 
  30   20:40   0.00   53.2    92    0.9   235     2.9   970.1    0.00 
  30   20:50   0.00   53.3    92    0.9   304     2.0   970.1    0.00 
  30   21:00   0.00   53.2    92    1.5    39     2.9   970.1    0.00 
  30   21:10   0.00   53.2    92    2.2    83     3.7   970.1    0.00 
  30   21:20   0.00   53.1    92    3.1    61     4.7   970.0    0.00 
  30   21:30   0.00   53.0    92    2.5    66     3.9   970.0    0.00 
  30   21:40   0.00   52.9    92    2.9    56     5.9   969.9    0.00 
  30   21:50   0.00   53.0    92    2.3   109     4.7   970.0    0.00 
  30   22:00   0.00   53.2    92    2.2   175     3.9   970.1    0.00 
  30   22:10   0.00   53.2    92    0.7    50     1.5   970.0    0.00 
  30   22:20   0.00   53.3    91    1.1     9     4.3   970.0    0.00 
  30   22:30   0.00   52.6    92    3.2   354     5.1   969.9    0.00 
  30   22:40   0.00   52.1    92    4.2     6     6.5   969.8    0.00 
  30   22:50   0.00   51.8    93    3.2   354     4.8   969.7    0.00 
  30   23:00   0.00   51.9    93    0.4   340     2.5   969.6    0.00 
  30   23:10   0.00   52.3    93    0.9   292     2.3   969.6    0.00 
  30   23:20   0.00   52.1    92    2.1    13     3.4   969.5    0.00 

Return to Sedgwick Reserve graphs page.


Western Regional Climate Center,wrcc@dri.edu